Des Moines, WA (98198)

9:28 AM PDT on September 03, 2015 (GMT -0700)
Des Moines Downtown | | Change Station
CLOSE
Current Station
Personal Weather Station
Location: Des Moines, WA
Elevation: 131 ft
Nearby Weather Stations

Elev 131 ft 47.41 °N, 122.32 °W | Updated 18 seconds ago

Mostly Cloudy
Mostly Cloudy
55.7 °F
Feels Like 55.7 °F
N
1.0
Wind Variable Wind from NW
Gusts 3.0 mph

Today
High -- | Low -- °F
--% Chance of Precip.
Yesterday
High -- | Low -- °F
Precip. -- in
6:30 AM 7:45 PM
Waning Gibbous, 69% visible
Pressure 30.05 in
Visibility 10.0 miles
Clouds Scattered Clouds 800 ft
Mostly Cloudy 1300 ft
Mostly Cloudy 2100 ft
Dew Point 51 °F
Humidity 85%
Rainfall 0.00 in
Snow Depth Not available.
UV 1 out of 12
Pollen 1.50 out of 12
Air Quality Not available.
Flu Activity Not available.
METAR KSEA 031553Z 21007KT 10SM SCT008 BKN013 BKN021 13/09 A3003 RMK AO2 SLP175 T01280094 PNO $
Pressure 30.05 in
Visibility 10.0 miles
Clouds Scattered Clouds 800 ft
Mostly Cloudy 1300 ft
Mostly Cloudy 2100 ft
Dew Point 51 °F
Humidity 85%
Rainfall 0.00 in
Snow Depth Not available.
UV 1 out of 12
Pollen 1.50 out of 12
Air Quality Not available.
Flu Activity Not available.
METAR KSEA 031553Z 21007KT 10SM SCT008 BKN013 BKN021 13/09 A3003 RMK AO2 SLP175 T01280094 PNO $

10-Day Weather Forecast

×

Almanac

Astronomy

Sep. 03, 2015 Rise Set
Actual Time
Civil Twilight
Nautical Twilight
Astronomical Twilight
Moon
Length of Visible Light
Length of Day
Tomorrow will be .
, % of the Moon is Illuminated

Today's Extremes

State Highs State Lows

Community

WunderPhotos

Upload Photos

1,851,988 photos uploaded!

WunderBlogs® & News

Nearby

Air Quality

  Air Quality AQ Index Pollutant
Not available.

Snow Depth

Station Depth Elevation

Earthquake Activity

City Distance Mag. Time & Date
Minimum magnitude displayed is 2.5.

Coastal Water Temperatures

Place Temperature

Stations

Nearby Weather Stations

Station Location Temp. Windchill Dew Point Humidity Wind Precip. Elev Updated Type